Time;durP1;ratioP1;P1;durP2;ratioP2;P2;SDS_P1;SDS_P2;PMS_P1;PMS_P2;Temp;Humidity;BMP_temperature;BMP_pressure;BME280_temperature;BME280_humidity;BME280_pressure;Samples;Min_cycle;Max_cycle;Signal;HPM_P1;HPM_P2
2022/05/25 00:01:36;;;;;;;1.10;1.00;;;15.50;99.90;;;;;;4957875;29;20457;-81
2022/05/25 00:04:04;;;;;;;1.23;1.13;;;15.40;99.90;;;;;;4953426;29;20480;-80
2022/05/25 00:06:32;;;;;;;0.90;0.90;;;15.00;99.90;;;;;;4940978;29;20450;-79
2022/05/25 00:08:58;;;;;;;0.87;0.87;;;14.90;99.90;;;;;;4945084;29;20460;-81
2022/05/25 00:11:25;;;;;;;0.93;0.90;;;14.80;99.90;;;;;;4960681;29;20950;-79
2022/05/25 00:13:53;;;;;;;2.43;1.10;;;14.60;99.90;;;;;;4951787;29;20874;-81
2022/05/25 00:16:20;;;;;;;1.47;0.87;;;14.60;99.90;;;;;;4938748;29;20485;-81
2022/05/25 00:21:27;;;;;;;1.83;1.20;;;14.60;99.90;;;;;;4956965;29;20445;-80
2022/05/25 00:23:54;;;;;;;1.60;1.00;;;14.60;99.90;;;;;;4943577;29;20450;-80
2022/05/25 00:26:21;;;;;;;1.10;1.10;;;14.70;99.90;;;;;;4937565;29;20511;-80
2022/05/25 00:28:48;;;;;;;1.17;1.00;;;14.70;99.90;;;;;;4948724;29;20449;-80
2022/05/25 00:31:16;;;;;;;0.97;0.90;;;14.90;99.90;;;;;;4955626;29;20445;-80
2022/05/25 00:33:43;;;;;;;1.10;1.10;;;14.90;99.90;;;;;;4945322;29;20806;-80
2022/05/25 00:36:10;;;;;;;1.23;0.90;;;14.90;99.90;;;;;;4937073;29;20528;-79
2022/05/25 00:38:36;;;;;;;0.90;0.90;;;15.00;99.90;;;;;;4953287;29;20480;-80
2022/05/25 00:41:03;;;;;;;1.47;1.20;;;14.90;99.90;;;;;;4963583;29;20819;-78
2022/05/25 00:43:30;;;;;;;0.70;0.70;;;14.70;99.90;;;;;;4951041;28;20495;-80
2022/05/25 00:46:00;;;;;;;1.97;1.33;;;14.60;99.90;;;;;;4936808;29;20462;-80
2022/05/25 00:48:33;;;;;;;0.90;0.90;;;14.50;99.90;;;;;;4956919;28;21066;-78
2022/05/25 00:51:15;;;;;;;0.90;0.90;;;14.50;99.90;;;;;;4961282;29;20461;-78
2022/05/25 00:53:43;;;;;;;3.20;1.30;;;14.60;99.90;;;;;;4923359;29;20458;-80
2022/05/25 00:56:13;;;;;;;0.93;0.90;;;14.80;99.90;;;;;;4919209;29;20492;-79
2022/05/25 00:58:43;;;;;;;1.90;1.10;;;14.80;99.90;;;;;;4917557;29;20472;-79
2022/05/25 01:01:10;;;;;;;0.90;0.90;;;14.90;99.90;;;;;;4917869;29;20460;-79
2022/05/25 01:03:38;;;;;;;1.13;1.03;;;15.00;99.90;;;;;;4954423;29;20458;-80
2022/05/25 01:06:10;;;;;;;1.10;0.90;;;15.10;99.90;;;;;;4955266;29;20462;-80
2022/05/25 01:08:48;;;;;;;1.33;1.00;;;15.10;99.90;;;;;;4937602;28;20559;-79
2022/05/25 01:11:29;;;;;;;1.30;1.03;;;15.20;99.90;;;;;;4935924;29;20458;-80
2022/05/25 01:14:09;;;;;;;1.50;1.43;;;15.20;99.90;;;;;;4917525;29;20462;-80
2022/05/25 01:16:45;;;;;;;1.93;0.97;;;15.20;99.90;;;;;;4953603;28;20493;-80
2022/05/25 01:19:32;;;;;;;1.40;1.30;;;15.30;99.90;;;;;;4956806;28;20458;-80
2022/05/25 01:22:06;;;;;;;1.10;1.10;;;15.30;99.90;;;;;;4934957;29;20974;-79
2022/05/25 01:24:39;;;;;;;1.30;1.20;;;15.30;99.90;;;;;;4940921;29;20455;-79
2022/05/25 01:27:28;;;;;;;2.60;1.50;;;15.30;99.90;;;;;;4963502;28;20483;-79
2022/05/25 01:30:18;;;;;;;1.30;1.20;;;15.30;99.90;;;;;;4965530;29;20446;-80
2022/05/25 01:32:56;;;;;;;0.87;0.87;;;15.30;99.90;;;;;;4940466;29;20461;-79
2022/05/25 01:35:31;;;;;;;1.33;1.30;;;15.30;99.90;;;;;;4940964;29;20531;-80
2022/05/25 01:38:05;;;;;;;1.00;1.00;;;15.40;99.90;;;;;;4941341;29;20467;-80
2022/05/25 01:40:39;;;;;;;1.30;1.20;;;15.30;99.90;;;;;;4940516;29;20461;-80
2022/05/25 01:43:10;;;;;;;1.37;1.30;;;15.30;99.90;;;;;;4944536;29;20818;-80
2022/05/25 01:45:43;;;;;;;1.13;1.03;;;15.40;99.90;;;;;;4959044;29;20460;-80
2022/05/25 01:48:12;;;;;;;1.40;1.37;;;15.20;99.90;;;;;;4957027;28;20484;-80
2022/05/25 01:50:44;;;;;;;2.33;1.10;;;15.30;99.90;;;;;;4958247;29;20454;-80
2022/05/25 01:53:13;;;;;;;1.13;1.03;;;15.20;99.90;;;;;;4954956;29;20458;-80
2022/05/25 01:55:44;;;;;;;1.30;1.20;;;15.20;99.90;;;;;;4939100;29;20498;-80
2022/05/25 01:58:16;;;;;;;1.23;1.13;;;15.20;99.90;;;;;;4942101;29;20475;-80
2022/05/25 02:00:46;;;;;;;1.33;1.23;;;15.20;99.90;;;;;;4927907;29;20461;-80
2022/05/25 02:06:37;;;;;;;1.10;1.00;;;15.10;99.90;;;;;;4958297;29;20426;-80
2022/05/25 02:09:26;;;;;;;1.20;1.20;;;15.10;99.90;;;;;;4947578;28;20552;-80
2022/05/25 02:12:01;;;;;;;1.43;1.30;;;14.80;99.90;;;;;;4946367;29;20445;-80
2022/05/25 02:14:36;;;;;;;1.10;1.10;;;14.80;99.90;;;;;;4958097;29;20452;-78
2022/05/25 02:17:12;;;;;;;1.90;1.13;;;14.80;99.90;;;;;;4928869;29;20477;-81
2022/05/25 02:19:47;;;;;;;2.10;1.10;;;14.80;99.90;;;;;;4921367;29;20459;-80
2022/05/25 02:22:17;;;;;;;1.20;0.93;;;14.70;99.90;;;;;;4947892;29;20457;-80
2022/05/25 02:24:50;;;;;;;1.60;1.50;;;14.50;99.90;;;;;;4939279;29;20466;-79
2022/05/25 02:27:22;;;;;;;0.67;0.67;;;14.20;99.90;;;;;;4957392;28;20468;-80
2022/05/25 02:29:51;;;;;;;1.30;1.10;;;14.00;99.90;;;;;;4956381;28;20458;-80
2022/05/25 02:32:24;;;;;;;1.80;1.73;;;13.90;99.90;;;;;;4948114;29;20456;-80
2022/05/25 02:34:52;;;;;;;2.77;1.03;;;13.80;99.90;;;;;;4956588;29;20461;-80
2022/05/25 02:37:24;;;;;;;0.73;0.73;;;13.70;99.90;;;;;;4938606;29;20875;-80
2022/05/25 02:39:52;;;;;;;0.80;0.80;;;13.60;99.90;;;;;;4938410;29;20454;-80
2022/05/25 02:42:19;;;;;;;1.70;1.70;;;13.50;99.90;;;;;;4938972;29;20796;-80
2022/05/25 02:44:47;;;;;;;0.80;0.80;;;13.40;99.90;;;;;;4941885;29;20467;-80
2022/05/25 02:47:14;;;;;;;1.10;1.00;;;13.40;99.90;;;;;;4941694;29;20518;-79
2022/05/25 02:49:42;;;;;;;1.60;1.50;;;13.40;99.90;;;;;;4963143;29;20456;-79
2022/05/25 02:52:10;;;;;;;1.30;1.27;;;13.30;99.90;;;;;;4967452;29;20452;-80
2022/05/25 02:54:38;;;;;;;0.60;0.60;;;13.30;99.90;;;;;;4969467;29;20456;-80
2022/05/25 02:57:06;;;;;;;1.07;0.70;;;13.40;99.90;;;;;;4961007;28;20485;-80
2022/05/25 02:59:33;;;;;;;0.87;0.83;;;13.50;99.90;;;;;;4949362;29;20458;-79
2022/05/25 03:02:01;;;;;;;2.40;0.90;;;13.40;99.90;;;;;;4956339;29;20452;-79
2022/05/25 03:04:28;;;;;;;1.70;0.80;;;13.60;99.90;;;;;;4968995;29;20476;-79
2022/05/25 03:06:56;;;;;;;1.00;1.00;;;13.60;99.90;;;;;;4967486;29;20505;-79
2022/05/25 03:09:23;;;;;;;1.10;1.00;;;13.70;99.90;;;;;;4951300;29;20450;-80
2022/05/25 03:11:50;;;;;;;0.57;0.57;;;13.60;99.90;;;;;;4962916;29;20449;-80
2022/05/25 03:14:17;;;;;;;2.30;1.23;;;13.60;99.90;;;;;;4948952;29;20885;-79
2022/05/25 03:16:44;;;;;;;2.73;1.27;;;13.60;99.90;;;;;;4968416;28;20497;-79
2022/05/25 03:19:11;;;;;;;1.13;1.13;;;13.70;99.90;;;;;;4965875;29;20460;-80
2022/05/25 03:21:37;;;;;;;1.10;1.00;;;13.70;99.90;;;;;;4968132;29;20460;-79
2022/05/25 03:24:07;;;;;;;1.23;0.90;;;13.80;99.90;;;;;;4951253;29;20454;-79
2022/05/25 03:26:34;;;;;;;0.80;0.80;;;13.80;99.90;;;;;;4948849;29;20464;-79
2022/05/25 03:29:01;;;;;;;0.80;0.80;;;13.90;99.90;;;;;;4966157;29;20465;-79
2022/05/25 03:31:27;;;;;;;1.13;0.90;;;14.00;99.90;;;;;;4968635;29;20453;-79
2022/05/25 03:33:54;;;;;;;0.77;0.77;;;14.10;99.90;;;;;;4953385;29;20456;-80
2022/05/25 03:36:21;;;;;;;1.10;1.00;;;14.10;99.90;;;;;;4948750;29;21021;-80
2022/05/25 03:38:47;;;;;;;1.13;0.97;;;14.10;99.90;;;;;;4963047;29;20453;-79
2022/05/25 03:41:17;;;;;;;1.00;1.00;;;14.10;99.90;;;;;;4956609;29;20458;-79
2022/05/25 03:43:45;;;;;;;1.60;1.10;;;14.10;99.90;;;;;;4948814;29;20491;-79
2022/05/25 03:46:12;;;;;;;1.00;1.00;;;14.20;99.90;;;;;;4957862;29;20453;-79
2022/05/25 03:48:39;;;;;;;0.93;0.93;;;14.20;99.90;;;;;;4954436;28;20485;-79
2022/05/25 03:51:05;;;;;;;0.83;0.83;;;14.00;99.90;;;;;;4956340;29;20453;-79
2022/05/25 03:53:32;;;;;;;1.00;1.00;;;14.10;99.90;;;;;;4967643;29;20693;-79
2022/05/25 03:56:00;;;;;;;1.70;1.03;;;14.10;99.80;;;;;;4958219;29;20489;-80
2022/05/25 03:58:28;;;;;;;4.57;1.57;;;14.10;99.90;;;;;;4948563;29;20525;-79
2022/05/25 04:00:54;;;;;;;1.90;1.20;;;14.20;99.90;;;;;;4961482;29;20476;-79
2022/05/25 04:03:22;;;;;;;1.77;0.90;;;14.20;99.90;;;;;;4958551;29;20470;-80
2022/05/25 04:05:48;;;;;;;1.33;0.90;;;14.20;99.90;;;;;;4959941;29;20459;-79
2022/05/25 04:08:15;;;;;;;1.17;1.07;;;14.20;99.90;;;;;;4965396;28;20472;-79
2022/05/25 04:10:42;;;;;;;1.20;1.13;;;14.20;99.90;;;;;;4967276;29;20457;-79
2022/05/25 04:13:09;;;;;;;0.83;0.83;;;14.10;99.90;;;;;;4951514;29;20833;-80
2022/05/25 04:15:37;;;;;;;1.77;1.17;;;13.80;99.90;;;;;;4957614;29;20453;-80
2022/05/25 04:18:05;;;;;;;1.27;1.07;;;13.50;99.90;;;;;;4967396;28;20479;-79
2022/05/25 04:20:33;;;;;;;1.70;1.17;;;13.60;99.90;;;;;;4950067;28;20517;-79
2022/05/25 04:23:00;;;;;;;1.03;1.03;;;13.80;99.90;;;;;;4947740;29;20445;-79
2022/05/25 04:25:27;;;;;;;1.30;1.20;;;13.90;99.90;;;;;;4955716;29;20452;-79
2022/05/25 04:27:56;;;;;;;1.10;0.80;;;13.90;99.90;;;;;;4953058;29;20464;-80
2022/05/25 04:30:25;;;;;;;1.13;1.13;;;13.90;99.90;;;;;;4967613;29;20848;-79
2022/05/25 04:32:54;;;;;;;1.23;1.13;;;14.00;99.90;;;;;;4965035;29;20465;-79
2022/05/25 04:35:22;;;;;;;1.00;1.00;;;14.10;99.90;;;;;;4955397;29;20454;-79
2022/05/25 04:37:55;;;;;;;1.13;0.83;;;14.10;99.90;;;;;;4965144;28;20497;-79
2022/05/25 04:40:25;;;;;;;1.23;0.97;;;14.20;99.90;;;;;;4948185;29;20466;-79
2022/05/25 04:42:54;;;;;;;1.17;1.10;;;14.20;99.90;;;;;;4950977;29;20449;-80
2022/05/25 04:45:21;;;;;;;1.10;1.10;;;14.20;99.90;;;;;;4964487;29;20462;-80
2022/05/25 04:47:49;;;;;;;0.97;0.97;;;14.20;99.90;;;;;;4949531;29;20489;-79
2022/05/25 04:50:20;;;;;;;1.07;0.90;;;14.10;99.90;;;;;;4961858;29;20457;-79
2022/05/25 04:52:47;;;;;;;1.20;0.90;;;14.10;99.90;;;;;;4967498;28;20459;-79
2022/05/25 04:57:19;;;;;;;1.60;1.00;;;14.20;99.90;;;;;;4933453;29;20458;-79
2022/05/25 04:58:01;;;;;;;3.40;1.40;;;14.00;99.90;;;;;;4938832;29;20489;-79
2022/05/25 05:00:29;;;;;;;2.20;1.00;;;13.90;99.90;;;;;;4970885;28;20468;-79
2022/05/25 05:02:56;;;;;;;1.07;1.00;;;13.60;99.90;;;;;;4968394;29;20916;-79
2022/05/25 05:05:24;;;;;;;1.23;1.10;;;13.50;99.90;;;;;;4951468;29;20453;-79
2022/05/25 05:07:50;;;;;;;3.07;1.77;;;13.40;99.90;;;;;;4952384;29;20837;-79
2022/05/25 05:10:18;;;;;;;1.43;1.00;;;13.30;99.90;;;;;;4969783;29;20463;-79
2022/05/25 05:12:45;;;;;;;2.57;1.03;;;13.20;99.90;;;;;;4970105;29;20524;-79
2022/05/25 05:15:13;;;;;;;2.10;1.10;;;13.20;99.90;;;;;;4952110;29;20457;-80
2022/05/25 05:17:40;;;;;;;1.27;1.07;;;13.20;99.90;;;;;;4967245;28;20496;-80
2022/05/25 05:20:08;;;;;;;1.10;1.00;;;13.10;99.90;;;;;;4970420;29;20463;-79
2022/05/25 05:22:36;;;;;;;2.53;1.47;;;13.10;99.90;;;;;;4967476;28;20481;-79
2022/05/25 05:25:04;;;;;;;1.60;1.50;;;13.00;99.90;;;;;;4971142;29;20445;-80
2022/05/25 05:27:31;;;;;;;1.07;1.03;;;13.00;99.90;;;;;;4956698;29;20473;-79
2022/05/25 05:30:01;;;;;;;1.60;1.50;;;13.10;99.90;;;;;;4950512;29;20457;-79
2022/05/25 05:32:29;;;;;;;2.10;1.30;;;13.10;99.90;;;;;;4963925;29;20467;-79
2022/05/25 05:34:56;;;;;;;1.60;1.00;;;13.20;99.90;;;;;;4975099;29;20493;-80
2022/05/25 05:37:27;;;;;;;1.20;1.07;;;13.20;99.90;;;;;;4958715;29;20497;-80
2022/05/25 05:39:57;;;;;;;1.60;1.23;;;13.30;99.90;;;;;;4951752;29;20448;-79
2022/05/25 05:42:25;;;;;;;0.63;0.63;;;13.50;99.90;;;;;;4963359;29;20826;-79
2022/05/25 05:44:54;;;;;;;0.90;0.90;;;13.60;99.90;;;;;;4962087;29;20794;-79
2022/05/25 05:47:23;;;;;;;1.87;1.60;;;13.60;99.90;;;;;;4950448;29;20505;-80
2022/05/25 05:49:50;;;;;;;3.20;3.00;;;13.60;99.90;;;;;;4958575;29;20449;-79
2022/05/25 05:52:17;;;;;;;1.10;1.00;;;13.50;99.90;;;;;;4965009;28;20461;-79
2022/05/25 05:54:44;;;;;;;4.50;2.23;;;13.60;99.90;;;;;;4966176;29;21029;-79
2022/05/25 05:57:14;;;;;;;1.10;1.10;;;13.70;99.90;;;;;;4970909;28;20512;-79
2022/05/25 05:59:41;;;;;;;1.20;1.10;;;13.70;99.90;;;;;;4965417;29;20458;-79
2022/05/25 06:02:08;;;;;;;2.00;1.23;;;13.80;99.90;;;;;;4951198;29;20453;-80
2022/05/25 06:04:35;;;;;;;1.60;1.20;;;13.80;99.90;;;;;;4950489;29;20448;-80
2022/05/25 06:07:02;;;;;;;1.83;1.30;;;13.80;99.90;;;;;;4966509;28;20465;-80
2022/05/25 06:09:28;;;;;;;1.33;1.00;;;13.90;99.90;;;;;;4964878;28;20461;-80
2022/05/25 06:11:55;;;;;;;1.93;1.70;;;14.00;99.90;;;;;;4946029;29;20464;-80
2022/05/25 06:14:23;;;;;;;1.17;1.07;;;14.20;99.90;;;;;;4942403;29;20459;-82
2022/05/25 06:19:37;;;;;;;1.17;1.07;;;14.50;99.90;;;;;;4940085;29;20481;-84
2022/05/25 06:22:07;;;;;;;1.57;1.10;;;14.60;99.20;;;;;;4943822;29;20465;-83
2022/05/25 06:24:37;;;;;;;0.93;0.80;;;14.70;98.40;;;;;;4948263;29;20482;-84
2022/05/25 06:27:08;;;;;;;0.90;0.90;;;14.90;99.40;;;;;;4941865;29;20502;-79
2022/05/25 06:29:36;;;;;;;2.70;1.03;;;15.00;98.70;;;;;;4935321;29;20528;-82
2022/05/25 06:32:04;;;;;;;3.13;1.30;;;15.00;98.30;;;;;;4939051;29;20446;-81
2022/05/25 06:34:31;;;;;;;1.77;1.00;;;15.10;98.60;;;;;;4942456;29;20459;-85
2022/05/25 06:36:57;;;;;;;1.53;1.23;;;15.20;98.70;;;;;;4944248;29;20498;-83
2022/05/25 06:39:24;;;;;;;1.10;0.80;;;15.30;98.20;;;;;;4943825;29;20454;-83
2022/05/25 06:41:51;;;;;;;1.20;1.10;;;15.40;97.90;;;;;;4946347;29;20457;-84
2022/05/25 06:44:18;;;;;;;1.60;1.50;;;15.30;98.00;;;;;;4945288;29;20526;-81
2022/05/25 06:46:47;;;;;;;1.53;1.43;;;15.30;97.70;;;;;;4952148;28;20831;-82
2022/05/25 06:49:15;;;;;;;1.03;1.03;;;15.40;97.60;;;;;;4956154;29;20453;-84
2022/05/25 06:51:42;;;;;;;3.90;2.80;;;15.40;97.40;;;;;;4945439;29;20470;-83
2022/05/25 06:54:09;;;;;;;2.77;2.00;;;15.50;97.50;;;;;;4946725;29;20450;-83
2022/05/25 06:56:36;;;;;;;1.33;1.30;;;15.50;97.70;;;;;;4954429;28;20465;-85
2022/05/25 06:59:04;;;;;;;2.50;1.40;;;15.50;97.40;;;;;;4968655;29;20464;-85
2022/05/25 07:01:31;;;;;;;1.30;1.20;;;15.40;96.90;;;;;;4967238;29;20469;-84
2022/05/25 07:03:59;;;;;;;1.50;1.20;;;15.30;97.20;;;;;;4968582;29;20465;-84
2022/05/25 07:06:26;;;;;;;1.40;1.27;;;15.30;97.40;;;;;;4964758;29;20462;-84
2022/05/25 07:08:53;;;;;;;2.83;1.53;;;15.40;98.10;;;;;;4945058;29;20466;-86
2022/05/25 07:11:21;;;;;;;1.50;1.40;;;15.30;97.50;;;;;;4951691;29;20466;-85
2022/05/25 07:13:48;;;;;;;1.33;1.20;;;15.20;97.40;;;;;;4957935;29;20967;-82
2022/05/25 07:16:17;;;;;;;0.80;0.80;;;15.20;97.80;;;;;;4941273;29;20457;-83
2022/05/25 07:18:46;;;;;;;1.60;1.50;;;15.20;98.10;;;;;;4947453;29;20493;-83
2022/05/25 07:21:17;;;;;;;7.90;1.53;;;15.20;97.70;;;;;;4949414;29;20453;-82
2022/05/25 07:23:49;;;;;;;4.40;2.00;;;15.30;98.10;;;;;;4950180;29;20465;-82
2022/05/25 07:26:21;;;;;;;1.77;1.67;;;15.30;97.30;;;;;;4952029;29;20465;-82
2022/05/25 07:28:48;;;;;;;1.30;1.20;;;15.30;97.90;;;;;;4953976;29;20449;-82
2022/05/25 07:31:19;;;;;;;3.40;1.70;;;15.30;98.20;;;;;;4948191;29;20464;-83
2022/05/25 07:33:50;;;;;;;1.70;1.60;;;15.30;96.80;;;;;;4960769;29;20471;-83
2022/05/25 07:36:18;;;;;;;1.40;1.30;;;15.40;97.80;;;;;;4959968;28;20458;-82
2022/05/25 07:38:49;;;;;;;1.90;1.10;;;15.50;95.60;;;;;;4960781;29;20505;-82
2022/05/25 07:41:17;;;;;;;1.23;1.20;;;15.70;95.80;;;;;;4960306;29;20467;-82
2022/05/25 07:43:45;;;;;;;2.00;1.43;;;15.70;96.00;;;;;;4961105;29;20461;-82
2022/05/25 07:46:12;;;;;;;1.53;1.43;;;15.90;96.50;;;;;;4961769;28;20460;-82
2022/05/25 07:48:38;;;;;;;2.23;1.33;;;16.10;96.10;;;;;;4960810;28;20477;-83
2022/05/25 07:51:06;;;;;;;2.93;1.00;;;16.50;96.90;;;;;;4960935;29;20458;-82
2022/05/25 07:56:20;;;;;;;1.40;1.30;;;17.00;95.80;;;;;;4961285;28;20816;-82
2022/05/25 07:58:46;;;;;;;2.10;1.40;;;17.30;94.90;;;;;;4960963;29;20490;-83
2022/05/25 08:01:18;;;;;;;1.23;1.03;;;17.40;94.50;;;;;;4963385;29;20451;-82
2022/05/25 08:06:33;;;;;;;1.83;1.20;;;17.60;93.30;;;;;;4960540;28;20429;-83
2022/05/25 08:09:01;;;;;;;1.53;1.10;;;17.50;92.20;;;;;;4960922;29;20447;-82
2022/05/25 08:11:29;;;;;;;1.10;1.00;;;17.50;92.20;;;;;;4959957;29;20547;-83
2022/05/25 08:13:57;;;;;;;1.00;1.00;;;17.60;93.10;;;;;;4960839;29;20458;-83
2022/05/25 08:16:24;;;;;;;1.93;1.23;;;17.70;92.70;;;;;;4960566;28;20813;-83
2022/05/25 08:18:51;;;;;;;1.10;1.00;;;18.00;93.20;;;;;;4960491;29;20494;-83
2022/05/25 08:21:17;;;;;;;2.17;1.00;;;18.30;92.10;;;;;;4960436;29;20839;-82
2022/05/25 08:23:44;;;;;;;1.00;0.93;;;18.20;91.60;;;;;;4960489;29;20956;-83
2022/05/25 08:26:12;;;;;;;1.00;1.00;;;18.30;91.60;;;;;;4960091;29;20462;-83
2022/05/25 08:28:39;;;;;;;1.47;0.93;;;18.40;90.40;;;;;;4961995;28;20474;-83
2022/05/25 08:31:07;;;;;;;1.07;1.07;;;18.50;89.60;;;;;;4963527;29;20452;-83
2022/05/25 08:33:33;;;;;;;1.30;1.20;;;18.60;89.90;;;;;;4963815;29;20988;-83
2022/05/25 08:36:00;;;;;;;1.90;1.70;;;18.80;89.90;;;;;;4964236;29;20459;-83
2022/05/25 08:38:27;;;;;;;1.37;1.30;;;18.80;90.70;;;;;;4964599;28;20498;-82
2022/05/25 08:40:55;;;;;;;1.90;1.50;;;18.80;86.00;;;;;;4963139;29;20459;-82
2022/05/25 08:43:28;;;;;;;0.80;0.80;;;18.60;86.10;;;;;;4964551;29;20464;-82
2022/05/25 08:45:58;;;;;;;0.73;0.73;;;18.60;86.80;;;;;;4964520;29;20462;-82
2022/05/25 14:49:28;;;;;;;1.37;1.00;;;31.90;43.10;;;;;;4945937;23;20494;-84
2022/05/25 14:51:57;;;;;;;1.73;1.00;;;33.30;40.10;;;;;;4934519;29;20453;-84
2022/05/25 14:54:26;;;;;;;0.80;0.80;;;34.40;38.90;;;;;;4949668;29;20450;-83
2022/05/25 14:56:54;;;;;;;1.23;1.20;;;35.60;36.30;;;;;;4946071;29;20450;-84
2022/05/25 14:59:28;;;;;;;1.20;0.80;;;35.00;34.50;;;;;;4943655;29;20462;-84
2022/05/25 15:01:57;;;;;;;0.90;0.63;;;34.10;35.50;;;;;;4942366;29;20482;-84
2022/05/25 15:04:32;;;;;;;2.00;1.10;;;33.50;33.60;;;;;;4942446;29;20980;-84
2022/05/25 15:07:00;;;;;;;0.73;0.73;;;30.80;37.10;;;;;;4942657;29;20471;-84
2022/05/25 15:09:31;;;;;;;1.33;0.83;;;30.20;39.40;;;;;;4943322;29;20867;-84
2022/05/25 15:12:07;;;;;;;2.17;1.30;;;29.10;39.60;;;;;;4941641;29;20457;-83
2022/05/25 15:20:14;;;;;;;3.50;0.90;;;29.00;41.70;;;;;;4943209;29;20428;-83
2022/05/25 15:22:44;;;;;;;1.60;0.60;;;30.00;39.90;;;;;;4927611;29;20494;-84
2022/05/25 15:25:15;;;;;;;1.40;0.67;;;31.00;39.20;;;;;;4923718;29;20517;-84
2022/05/25 15:27:58;;;;;;;1.27;0.67;;;31.40;37.70;;;;;;4924621;29;21075;-85
2022/05/25 15:30:30;;;;;;;1.33;0.70;;;32.00;37.80;;;;;;4923329;29;20458;-86
2022/05/25 15:32:57;;;;;;;0.80;0.73;;;32.30;36.20;;;;;;4924231;29;20831;-85
2022/05/25 15:35:25;;;;;;;0.80;0.60;;;31.50;37.70;;;;;;4924085;29;21015;-84
2022/05/25 15:37:54;;;;;;;1.10;0.60;;;32.00;37.90;;;;;;4923198;29;20488;-84
2022/05/25 15:40:21;;;;;;;2.50;0.90;;;31.40;37.30;;;;;;4923162;29;20840;-84
2022/05/25 15:42:48;;;;;;;1.33;0.90;;;30.60;36.90;;;;;;4924982;29;20479;-82
2022/05/25 15:45:14;;;;;;;2.00;1.03;;;29.50;39.10;;;;;;4931016;29;20463;-84
2022/05/25 15:47:41;;;;;;;2.00;0.80;;;29.90;40.60;;;;;;4923590;29;20491;-84
2022/05/25 15:50:12;;;;;;;1.60;1.07;;;30.70;40.20;;;;;;4922884;29;20495;-84
2022/05/25 15:52:40;;;;;;;0.87;0.80;;;30.50;38.20;;;;;;4923500;29;20833;-85
2022/05/25 15:55:09;;;;;;;0.97;0.67;;;30.40;38.50;;;;;;4924258;29;20471;-84
2022/05/25 15:57:36;;;;;;;1.43;0.60;;;29.60;38.30;;;;;;4924229;29;20468;-84
2022/05/25 16:00:05;;;;;;;2.67;1.10;;;29.00;39.30;;;;;;4924200;29;20455;-84
2022/05/25 16:02:33;;;;;;;1.07;0.97;;;28.30;40.10;;;;;;4925603;29;20449;-84
2022/05/25 16:04:59;;;;;;;1.30;1.10;;;28.60;42.20;;;;;;4927027;29;20865;-84
2022/05/25 16:10:09;;;;;;;1.10;0.83;;;28.20;41.20;;;;;;4922298;29;20500;-83
2022/05/25 16:12:35;;;;;;;2.30;1.03;;;26.80;42.50;;;;;;4924620;29;20455;-84
2022/05/25 16:15:03;;;;;;;2.00;1.50;;;26.50;43.50;;;;;;4923957;29;20456;-84
2022/05/25 16:17:30;;;;;;;1.00;0.90;;;26.20;44.10;;;;;;4923841;29;20534;-84
2022/05/25 16:19:57;;;;;;;0.80;0.80;;;25.80;44.60;;;;;;4924438;29;20460;-83
2022/05/25 16:22:24;;;;;;;1.40;1.10;;;25.00;45.50;;;;;;4923258;29;20448;-84
2022/05/25 16:24:50;;;;;;;2.63;1.43;;;24.40;46.90;;;;;;4923878;29;20460;-83
2022/05/25 16:27:18;;;;;;;0.90;0.70;;;24.30;48.00;;;;;;4922405;29;20948;-84
2022/05/25 16:29:45;;;;;;;4.00;1.00;;;23.80;49.10;;;;;;4919470;29;20491;-83
2022/05/25 16:32:14;;;;;;;1.30;1.20;;;23.40;49.20;;;;;;4926022;29;20454;-82
2022/05/25 16:34:41;;;;;;;2.13;1.47;;;23.40;50.20;;;;;;4928069;29;20458;-83
2022/05/25 16:37:08;;;;;;;2.70;2.50;;;23.00;50.30;;;;;;4917265;29;20820;-82
2022/05/25 16:46:15;;;;;;;6.23;4.57;;;21.90;52.00;;;;;;4914763;29;20445;-87
2022/05/25 16:48:48;;;;;;;2.83;2.63;;;21.60;52.90;;;;;;4919188;29;20507;-87
2022/05/25 16:54:32;;;;;;;1.60;0.90;;;21.90;53.30;;;;;;4924298;29;20950;-86
2022/05/25 17:03:20;;;;;;;1.10;1.10;;;23.30;52.50;;;;;;4904709;29;20516;-87
2022/05/25 17:06:30;;;;;;;1.07;0.93;;;23.70;51.90;;;;;;4903626;29;20463;-86
2022/05/25 17:11:59;;;;;;;0.80;0.70;;;24.60;50.80;;;;;;4920103;29;20453;-85
2022/05/25 17:14:26;;;;;;;2.20;1.37;;;24.70;49.70;;;;;;4912614;29;20457;-84
2022/05/25 17:16:53;;;;;;;0.97;0.90;;;24.80;49.90;;;;;;4920723;29;20826;-85
2022/05/25 17:22:21;;;;;;;0.77;0.77;;;24.70;50.50;;;;;;4860196;29;20629;-83
2022/05/25 17:24:48;;;;;;;2.40;0.93;;;24.20;49.90;;;;;;4851933;29;20962;-83
2022/05/25 17:27:14;;;;;;;1.00;0.90;;;23.50;50.50;;;;;;4877423;29;20458;-75
2022/05/25 17:29:41;;;;;;;1.50;1.27;;;22.90;50.90;;;;;;4919850;29;20482;-85
2022/05/25 17:32:09;;;;;;;0.70;0.70;;;22.70;52.70;;;;;;4923925;29;20462;-80
2022/05/25 17:34:37;;;;;;;0.80;0.80;;;22.30;52.70;;;;;;4922930;29;20460;-82
2022/05/25 17:42:32;;;;;;;1.07;0.80;;;21.50;55.00;;;;;;4918104;29;20839;-81
2022/05/25 17:44:59;;;;;;;3.07;0.97;;;21.30;55.40;;;;;;4928511;29;20476;-83
2022/05/25 17:47:26;;;;;;;1.63;0.87;;;21.40;55.30;;;;;;4933024;29;20878;-83
2022/05/25 17:49:54;;;;;;;4.73;1.30;;;21.50;55.00;;;;;;4932660;29;20456;-81
2022/05/25 17:52:21;;;;;;;1.53;1.43;;;21.50;55.60;;;;;;4930907;29;20458;-82
2022/05/25 17:54:47;;;;;;;1.07;1.07;;;21.40;55.20;;;;;;4932244;29;20461;-80
2022/05/25 17:57:14;;;;;;;0.80;0.80;;;21.40;55.90;;;;;;4932688;29;20448;-83
2022/05/25 17:59:44;;;;;;;1.00;1.00;;;21.50;55.60;;;;;;4931112;29;20485;-80
2022/05/25 18:02:12;;;;;;;1.10;1.00;;;21.40;55.00;;;;;;4931361;29;20458;-81
2022/05/25 18:04:39;;;;;;;1.30;1.00;;;21.20;55.70;;;;;;4931881;29;20453;-80
2022/05/25 18:07:10;;;;;;;0.93;0.93;;;21.00;55.60;;;;;;4931075;29;20463;-80
2022/05/25 18:09:41;;;;;;;2.00;1.10;;;20.80;55.90;;;;;;4925999;29;20452;-81
2022/05/25 18:12:09;;;;;;;1.37;1.30;;;20.60;56.80;;;;;;4930373;29;20988;-79
2022/05/25 18:14:40;;;;;;;1.07;1.07;;;20.30;56.80;;;;;;4933528;29;20462;-81
2022/05/25 18:17:07;;;;;;;1.80;1.50;;;20.00;57.50;;;;;;4929090;29;20458;-86
2022/05/25 18:22:17;;;;;;;3.47;1.93;;;19.90;58.20;;;;;;4918884;29;21062;-84
2022/05/25 18:24:45;;;;;;;2.00;1.20;;;19.80;58.50;;;;;;4918935;29;20459;-83
2022/05/25 18:27:12;;;;;;;1.00;0.90;;;19.80;58.90;;;;;;4926093;29;20474;-84
2022/05/25 18:29:40;;;;;;;2.10;1.30;;;19.60;59.00;;;;;;4928055;29;20454;-81
2022/05/25 18:32:09;;;;;;;1.30;1.20;;;19.60;59.50;;;;;;4918019;29;20456;-80
2022/05/25 18:34:36;;;;;;;1.20;1.10;;;19.60;59.10;;;;;;4920627;29;20449;-79
2022/05/25 18:37:05;;;;;;;3.00;1.50;;;19.60;59.20;;;;;;4918130;29;20507;-81
2022/05/25 18:39:33;;;;;;;0.83;0.83;;;19.40;59.50;;;;;;4931911;29;20549;-81
2022/05/25 18:42:00;;;;;;;1.50;1.07;;;19.10;60.00;;;;;;4931289;29;20462;-80
2022/05/25 18:44:27;;;;;;;1.13;1.13;;;18.90;60.50;;;;;;4932060;29;20975;-82
2022/05/25 18:46:54;;;;;;;2.07;1.73;;;18.80;61.40;;;;;;4931965;29;20469;-82
2022/05/25 18:49:21;;;;;;;4.60;1.37;;;18.60;61.70;;;;;;4930700;29;20501;-81
2022/05/25 18:51:51;;;;;;;2.17;1.80;;;18.40;62.20;;;;;;4929670;29;20468;-81
2022/05/25 18:54:18;;;;;;;1.10;1.10;;;18.40;62.80;;;;;;4930412;29;20462;-81
2022/05/25 18:56:46;;;;;;;1.83;1.30;;;18.20;63.50;;;;;;4927165;29;20443;-81
2022/05/25 18:59:13;;;;;;;1.27;0.80;;;18.10;64.30;;;;;;4931289;29;20490;-82
2022/05/25 19:01:40;;;;;;;1.27;1.17;;;18.00;64.60;;;;;;4930682;29;20472;-82
2022/05/25 19:04:07;;;;;;;1.60;1.50;;;17.90;65.30;;;;;;4931332;29;20466;-82
2022/05/25 19:06:33;;;;;;;2.20;1.17;;;17.80;65.30;;;;;;4931879;29;20476;-82
2022/05/25 19:09:00;;;;;;;2.23;1.50;;;17.80;66.00;;;;;;4932209;29;20624;-82
2022/05/25 19:11:27;;;;;;;2.53;1.37;;;17.70;67.20;;;;;;4930610;29;20460;-81
2022/05/25 19:13:55;;;;;;;1.63;1.23;;;17.50;67.00;;;;;;4931630;29;20453;-82
2022/05/25 19:16:22;;;;;;;1.83;1.23;;;17.40;67.70;;;;;;4930329;29;20448;-81
2022/05/25 19:18:49;;;;;;;3.30;1.50;;;17.40;67.80;;;;;;4928704;29;20475;-82
2022/05/25 19:21:18;;;;;;;1.30;1.20;;;17.30;68.20;;;;;;4928916;29;20460;-83
2022/05/25 19:23:51;;;;;;;1.30;1.20;;;17.30;68.90;;;;;;4928148;29;20457;-82
2022/05/25 19:26:21;;;;;;;1.83;1.53;;;17.20;69.50;;;;;;4918951;29;20458;-83
2022/05/25 19:28:51;;;;;;;1.97;1.13;;;17.10;69.70;;;;;;4917193;29;20487;-83
2022/05/25 19:31:31;;;;;;;2.00;1.43;;;17.10;70.10;;;;;;4918120;29;20469;-83
2022/05/25 19:33:57;;;;;;;2.40;1.00;;;17.00;70.50;;;;;;4928441;29;20456;-81
2022/05/25 19:36:28;;;;;;;1.33;1.20;;;17.00;71.20;;;;;;4928923;29;20551;-81
2022/05/25 19:38:56;;;;;;;2.20;1.53;;;16.90;71.30;;;;;;4929613;29;20473;-81
2022/05/25 19:41:25;;;;;;;1.37;1.27;;;16.90;71.80;;;;;;4930431;29;20566;-81
2022/05/25 19:43:56;;;;;;;1.17;0.97;;;16.90;72.00;;;;;;4933876;29;20466;-81
2022/05/25 19:46:25;;;;;;;1.33;1.03;;;16.80;73.50;;;;;;4938434;29;20442;-79
2022/05/25 19:48:52;;;;;;;1.43;1.33;;;16.80;72.70;;;;;;4938119;29;20484;-79
2022/05/25 19:51:18;;;;;;;2.13;1.43;;;16.70;73.30;;;;;;4937172;29;20537;-79